sensor_id;sensor_type;location;lat;lon;timestamp;P1;durP1;ratioP1;P2;durP2;ratioP2
6442;SDS011;3254;47.372;8.512;2022-09-01T00:01:50;21.40;;;16.50;;
6442;SDS011;3254;47.372;8.512;2022-09-01T00:04:19;20.87;;;17.00;;
6442;SDS011;3254;47.372;8.512;2022-09-01T00:06:47;21.00;;;18.03;;
6442;SDS011;3254;47.372;8.512;2022-09-01T00:09:14;22.90;;;17.87;;
6442;SDS011;3254;47.372;8.512;2022-09-01T00:11:43;19.33;;;17.33;;
6442;SDS011;3254;47.372;8.512;2022-09-01T00:14:11;21.47;;;17.47;;
6442;SDS011;3254;47.372;8.512;2022-09-01T00:16:37;18.83;;;16.83;;
6442;SDS011;3254;47.372;8.512;2022-09-01T00:19:03;21.87;;;18.37;;
6442;SDS011;3254;47.372;8.512;2022-09-01T00:21:30;22.00;;;17.67;;
6442;SDS011;3254;47.372;8.512;2022-09-01T00:23:58;21.80;;;18.17;;
6442;SDS011;3254;47.372;8.512;2022-09-01T00:26:24;25.33;;;17.50;;
6442;SDS011;3254;47.372;8.512;2022-09-01T00:28:50;25.43;;;19.43;;
6442;SDS011;3254;47.372;8.512;2022-09-01T00:31:17;21.47;;;17.00;;
6442;SDS011;3254;47.372;8.512;2022-09-01T00:33:43;21.80;;;18.30;;
6442;SDS011;3254;47.372;8.512;2022-09-01T00:36:09;29.93;;;18.93;;
6442;SDS011;3254;47.372;8.512;2022-09-01T00:38:35;20.97;;;18.10;;
6442;SDS011;3254;47.372;8.512;2022-09-01T00:41:01;24.70;;;18.20;;
6442;SDS011;3254;47.372;8.512;2022-09-01T00:46:19;26.23;;;20.50;;
6442;SDS011;3254;47.372;8.512;2022-09-01T00:48:58;25.30;;;19.00;;
6442;SDS011;3254;47.372;8.512;2022-09-01T00:51:32;30.23;;;20.37;;
6442;SDS011;3254;47.372;8.512;2022-09-01T00:53:58;30.77;;;20.40;;
6442;SDS011;3254;47.372;8.512;2022-09-01T00:56:25;25.90;;;19.83;;
6442;SDS011;3254;47.372;8.512;2022-09-01T00:58:52;24.60;;;21.50;;
6442;SDS011;3254;47.372;8.512;2022-09-01T01:01:18;28.50;;;21.00;;
6442;SDS011;3254;47.372;8.512;2022-09-01T01:03:44;27.77;;;20.60;;
6442;SDS011;3254;47.372;8.512;2022-09-01T01:06:11;29.23;;;21.93;;
6442;SDS011;3254;47.372;8.512;2022-09-01T01:08:40;26.97;;;21.10;;
6442;SDS011;3254;47.372;8.512;2022-09-01T01:11:13;24.87;;;19.30;;
6442;SDS011;3254;47.372;8.512;2022-09-01T01:13:51;27.00;;;19.23;;
6442;SDS011;3254;47.372;8.512;2022-09-01T01:16:19;26.30;;;19.50;;
6442;SDS011;3254;47.372;8.512;2022-09-01T01:18:45;27.53;;;19.80;;
6442;SDS011;3254;47.372;8.512;2022-09-01T01:21:18;27.47;;;19.77;;
6442;SDS011;3254;47.372;8.512;2022-09-01T01:24:38;25.53;;;20.33;;
6442;SDS011;3254;47.372;8.512;2022-09-01T01:27:03;23.20;;;19.30;;
6442;SDS011;3254;47.372;8.512;2022-09-01T01:29:31;28.40;;;19.07;;
6442;SDS011;3254;47.372;8.512;2022-09-01T01:32:01;25.93;;;20.03;;
6442;SDS011;3254;47.372;8.512;2022-09-01T01:34:29;25.23;;;19.10;;
6442;SDS011;3254;47.372;8.512;2022-09-01T01:36:55;21.57;;;18.83;;
6442;SDS011;3254;47.372;8.512;2022-09-01T01:39:23;29.03;;;20.80;;
6442;SDS011;3254;47.372;8.512;2022-09-01T01:41:50;31.53;;;20.50;;
6442;SDS011;3254;47.372;8.512;2022-09-01T01:44:19;28.23;;;21.07;;
6442;SDS011;3254;47.372;8.512;2022-09-01T01:46:50;26.50;;;19.73;;
6442;SDS011;3254;47.372;8.512;2022-09-01T01:49:18;26.00;;;21.17;;
6442;SDS011;3254;47.372;8.512;2022-09-01T01:51:47;22.77;;;19.37;;
6442;SDS011;3254;47.372;8.512;2022-09-01T01:54:15;29.57;;;21.70;;
6442;SDS011;3254;47.372;8.512;2022-09-01T01:56:43;28.47;;;20.47;;
6442;SDS011;3254;47.372;8.512;2022-09-01T01:59:09;31.13;;;21.17;;
6442;SDS011;3254;47.372;8.512;2022-09-01T02:01:38;26.60;;;21.40;;
6442;SDS011;3254;47.372;8.512;2022-09-01T02:04:07;25.30;;;21.13;;
6442;SDS011;3254;47.372;8.512;2022-09-01T02:06:35;32.33;;;21.57;;
6442;SDS011;3254;47.372;8.512;2022-09-01T02:09:04;26.20;;;20.00;;
6442;SDS011;3254;47.372;8.512;2022-09-01T02:11:31;30.37;;;20.80;;
6442;SDS011;3254;47.372;8.512;2022-09-01T02:14:02;32.37;;;22.03;;
6442;SDS011;3254;47.372;8.512;2022-09-01T02:16:31;34.33;;;22.00;;
6442;SDS011;3254;47.372;8.512;2022-09-01T02:18:58;28.30;;;22.77;;
6442;SDS011;3254;47.372;8.512;2022-09-01T02:21:25;32.07;;;22.40;;
6442;SDS011;3254;47.372;8.512;2022-09-01T02:23:53;40.67;;;24.53;;
6442;SDS011;3254;47.372;8.512;2022-09-01T02:26:32;35.33;;;25.47;;
6442;SDS011;3254;47.372;8.512;2022-09-01T02:29:05;29.20;;;23.20;;
6442;SDS011;3254;47.372;8.512;2022-09-01T02:31:34;35.27;;;24.60;;
6442;SDS011;3254;47.372;8.512;2022-09-01T02:34:03;35.80;;;26.17;;
6442;SDS011;3254;47.372;8.512;2022-09-01T02:36:29;31.40;;;24.53;;
6442;SDS011;3254;47.372;8.512;2022-09-01T02:38:59;34.13;;;25.23;;
6442;SDS011;3254;47.372;8.512;2022-09-01T02:41:25;34.70;;;26.20;;
6442;SDS011;3254;47.372;8.512;2022-09-01T02:43:53;34.80;;;24.60;;
6442;SDS011;3254;47.372;8.512;2022-09-01T02:46:19;37.63;;;26.20;;
6442;SDS011;3254;47.372;8.512;2022-09-01T02:48:47;31.57;;;23.37;;
6442;SDS011;3254;47.372;8.512;2022-09-01T02:51:16;31.27;;;23.90;;
6442;SDS011;3254;47.372;8.512;2022-09-01T02:53:43;31.57;;;24.77;;
6442;SDS011;3254;47.372;8.512;2022-09-01T02:56:15;44.53;;;26.67;;
6442;SDS011;3254;47.372;8.512;2022-09-01T02:58:44;34.83;;;23.87;;
6442;SDS011;3254;47.372;8.512;2022-09-01T03:01:15;33.57;;;24.53;;
6442;SDS011;3254;47.372;8.512;2022-09-01T03:03:48;35.20;;;25.40;;
6442;SDS011;3254;47.372;8.512;2022-09-01T03:06:16;37.80;;;27.27;;
6442;SDS011;3254;47.372;8.512;2022-09-01T03:08:44;34.80;;;26.50;;
6442;SDS011;3254;47.372;8.512;2022-09-01T03:11:10;32.80;;;25.43;;
6442;SDS011;3254;47.372;8.512;2022-09-01T03:13:37;34.93;;;24.30;;
6442;SDS011;3254;47.372;8.512;2022-09-01T03:16:04;34.23;;;25.33;;
6442;SDS011;3254;47.372;8.512;2022-09-01T03:18:31;36.87;;;25.23;;
6442;SDS011;3254;47.372;8.512;2022-09-01T03:20:58;29.07;;;22.43;;
6442;SDS011;3254;47.372;8.512;2022-09-01T03:23:26;32.93;;;25.00;;
6442;SDS011;3254;47.372;8.512;2022-09-01T03:25:53;35.73;;;23.20;;
6442;SDS011;3254;47.372;8.512;2022-09-01T03:28:19;29.87;;;24.40;;
6442;SDS011;3254;47.372;8.512;2022-09-01T03:30:46;33.10;;;23.73;;
6442;SDS011;3254;47.372;8.512;2022-09-01T03:33:14;36.90;;;22.90;;
6442;SDS011;3254;47.372;8.512;2022-09-01T03:35:41;35.93;;;23.13;;
6442;SDS011;3254;47.372;8.512;2022-09-01T03:38:07;30.27;;;23.80;;
6442;SDS011;3254;47.372;8.512;2022-09-01T03:40:39;32.63;;;23.77;;
6442;SDS011;3254;47.372;8.512;2022-09-01T03:43:06;27.80;;;23.30;;
6442;SDS011;3254;47.372;8.512;2022-09-01T03:45:38;31.13;;;22.87;;
6442;SDS011;3254;47.372;8.512;2022-09-01T03:48:05;29.50;;;22.20;;
6442;SDS011;3254;47.372;8.512;2022-09-01T03:50:33;30.50;;;22.70;;
6442;SDS011;3254;47.372;8.512;2022-09-01T03:53:05;27.60;;;21.83;;
6442;SDS011;3254;47.372;8.512;2022-09-01T03:55:32;28.20;;;21.67;;
6442;SDS011;3254;47.372;8.512;2022-09-01T03:58:00;29.20;;;23.10;;
6442;SDS011;3254;47.372;8.512;2022-09-01T04:00:31;34.63;;;22.50;;
6442;SDS011;3254;47.372;8.512;2022-09-01T04:03:00;29.17;;;23.00;;
6442;SDS011;3254;47.372;8.512;2022-09-01T04:05:29;25.57;;;19.30;;
6442;SDS011;3254;47.372;8.512;2022-09-01T04:07:58;24.40;;;19.40;;
6442;SDS011;3254;47.372;8.512;2022-09-01T04:10:27;25.50;;;19.33;;
6442;SDS011;3254;47.372;8.512;2022-09-01T04:12:56;26.83;;;19.47;;
6442;SDS011;3254;47.372;8.512;2022-09-01T04:15:23;24.03;;;19.57;;
6442;SDS011;3254;47.372;8.512;2022-09-01T04:17:50;23.57;;;19.73;;
6442;SDS011;3254;47.372;8.512;2022-09-01T04:20:36;23.33;;;18.60;;
6442;SDS011;3254;47.372;8.512;2022-09-01T04:23:19;22.53;;;18.90;;
6442;SDS011;3254;47.372;8.512;2022-09-01T04:26:09;22.20;;;18.43;;
6442;SDS011;3254;47.372;8.512;2022-09-01T04:28:39;19.23;;;16.30;;
6442;SDS011;3254;47.372;8.512;2022-09-01T04:31:10;20.10;;;17.90;;
6442;SDS011;3254;47.372;8.512;2022-09-01T04:33:44;20.47;;;18.30;;
6442;SDS011;3254;47.372;8.512;2022-09-01T04:36:15;21.87;;;17.47;;
6442;SDS011;3254;47.372;8.512;2022-09-01T04:38:44;21.37;;;18.17;;
6442;SDS011;3254;47.372;8.512;2022-09-01T04:41:11;21.07;;;17.10;;
6442;SDS011;3254;47.372;8.512;2022-09-01T04:43:44;20.60;;;18.00;;
6442;SDS011;3254;47.372;8.512;2022-09-01T04:46:15;19.73;;;17.60;;
6442;SDS011;3254;47.372;8.512;2022-09-01T04:48:41;21.63;;;17.40;;
6442;SDS011;3254;47.372;8.512;2022-09-01T04:51:09;21.00;;;17.50;;
6442;SDS011;3254;47.372;8.512;2022-09-01T04:53:40;20.53;;;17.43;;
6442;SDS011;3254;47.372;8.512;2022-09-01T04:56:07;19.03;;;17.03;;
6442;SDS011;3254;47.372;8.512;2022-09-01T04:58:34;21.20;;;17.40;;
6442;SDS011;3254;47.372;8.512;2022-09-01T05:01:01;18.10;;;16.30;;
6442;SDS011;3254;47.372;8.512;2022-09-01T05:03:31;17.90;;;16.00;;
6442;SDS011;3254;47.372;8.512;2022-09-01T05:05:57;23.73;;;15.60;;
6442;SDS011;3254;47.372;8.512;2022-09-01T05:08:25;16.73;;;14.90;;
6442;SDS011;3254;47.372;8.512;2022-09-01T05:10:51;17.33;;;14.20;;
6442;SDS011;3254;47.372;8.512;2022-09-01T05:13:19;18.63;;;16.47;;
6442;SDS011;3254;47.372;8.512;2022-09-01T05:15:47;16.77;;;14.97;;
6442;SDS011;3254;47.372;8.512;2022-09-01T05:18:29;16.87;;;15.10;;
6442;SDS011;3254;47.372;8.512;2022-09-01T05:20:56;17.97;;;14.67;;
6442;SDS011;3254;47.372;8.512;2022-09-01T05:23:22;17.93;;;15.13;;
6442;SDS011;3254;47.372;8.512;2022-09-01T05:25:50;18.30;;;14.20;;
6442;SDS011;3254;47.372;8.512;2022-09-01T05:28:19;18.17;;;14.77;;
6442;SDS011;3254;47.372;8.512;2022-09-01T05:30:48;18.73;;;15.93;;
6442;SDS011;3254;47.372;8.512;2022-09-01T05:33:18;17.13;;;14.63;;
6442;SDS011;3254;47.372;8.512;2022-09-01T05:35:53;20.30;;;14.20;;
6442;SDS011;3254;47.372;8.512;2022-09-01T05:38:20;23.43;;;15.03;;
6442;SDS011;3254;47.372;8.512;2022-09-01T05:40:54;19.80;;;15.53;;
6442;SDS011;3254;47.372;8.512;2022-09-01T05:43:27;17.73;;;15.47;;
6442;SDS011;3254;47.372;8.512;2022-09-01T05:45:58;18.67;;;15.20;;
6442;SDS011;3254;47.372;8.512;2022-09-01T05:48:28;16.17;;;13.93;;
6442;SDS011;3254;47.372;8.512;2022-09-01T05:50:56;18.03;;;15.23;;
6442;SDS011;3254;47.372;8.512;2022-09-01T05:53:23;18.80;;;15.60;;
6442;SDS011;3254;47.372;8.512;2022-09-01T05:55:55;18.80;;;15.37;;
6442;SDS011;3254;47.372;8.512;2022-09-01T05:58:22;19.80;;;14.27;;
6442;SDS011;3254;47.372;8.512;2022-09-01T06:00:50;20.70;;;16.37;;
6442;SDS011;3254;47.372;8.512;2022-09-01T06:03:18;17.53;;;14.53;;
6442;SDS011;3254;47.372;8.512;2022-09-01T06:05:46;16.27;;;14.47;;
6442;SDS011;3254;47.372;8.512;2022-09-01T06:08:17;18.00;;;14.37;;
6442;SDS011;3254;47.372;8.512;2022-09-01T06:10:44;18.00;;;14.63;;
6442;SDS011;3254;47.372;8.512;2022-09-01T06:13:10;18.10;;;14.70;;
6442;SDS011;3254;47.372;8.512;2022-09-01T06:15:39;16.40;;;12.87;;
6442;SDS011;3254;47.372;8.512;2022-09-01T06:18:06;15.23;;;13.10;;
6442;SDS011;3254;47.372;8.512;2022-09-01T06:20:33;21.47;;;13.63;;
6442;SDS011;3254;47.372;8.512;2022-09-01T06:23:02;15.53;;;13.93;;
6442;SDS011;3254;47.372;8.512;2022-09-01T06:25:27;14.23;;;12.37;;
6442;SDS011;3254;47.372;8.512;2022-09-01T06:27:54;15.13;;;13.63;;
6442;SDS011;3254;47.372;8.512;2022-09-01T06:30:21;18.77;;;13.47;;
6442;SDS011;3254;47.372;8.512;2022-09-01T06:32:50;18.20;;;13.70;;
6442;SDS011;3254;47.372;8.512;2022-09-01T06:35:18;15.70;;;12.67;;
6442;SDS011;3254;47.372;8.512;2022-09-01T06:37:45;16.70;;;12.00;;
6442;SDS011;3254;47.372;8.512;2022-09-01T06:40:13;15.30;;;13.70;;
6442;SDS011;3254;47.372;8.512;2022-09-01T06:42:46;16.10;;;13.60;;
6442;SDS011;3254;47.372;8.512;2022-09-01T06:45:14;15.53;;;12.80;;
6442;SDS011;3254;47.372;8.512;2022-09-01T06:47:41;18.33;;;12.97;;
6442;SDS011;3254;47.372;8.512;2022-09-01T06:50:09;18.87;;;13.50;;
6442;SDS011;3254;47.372;8.512;2022-09-01T06:52:36;14.90;;;12.00;;
6442;SDS011;3254;47.372;8.512;2022-09-01T06:55:04;14.43;;;12.90;;
6442;SDS011;3254;47.372;8.512;2022-09-01T06:57:30;16.30;;;13.40;;
6442;SDS011;3254;47.372;8.512;2022-09-01T06:59:56;18.37;;;13.50;;
6442;SDS011;3254;47.372;8.512;2022-09-01T07:02:22;14.40;;;12.90;;
6442;SDS011;3254;47.372;8.512;2022-09-01T07:04:48;14.60;;;13.10;;
6442;SDS011;3254;47.372;8.512;2022-09-01T07:07:15;16.47;;;12.87;;
6442;SDS011;3254;47.372;8.512;2022-09-01T07:09:41;17.17;;;13.73;;
6442;SDS011;3254;47.372;8.512;2022-09-01T07:12:07;21.57;;;12.47;;
6442;SDS011;3254;47.372;8.512;2022-09-01T07:14:32;17.30;;;12.20;;
6442;SDS011;3254;47.372;8.512;2022-09-01T07:16:59;15.43;;;12.20;;
6442;SDS011;3254;47.372;8.512;2022-09-01T07:19:25;14.70;;;13.03;;
6442;SDS011;3254;47.372;8.512;2022-09-01T07:21:51;13.77;;;12.47;;
6442;SDS011;3254;47.372;8.512;2022-09-01T07:24:17;17.03;;;11.10;;
6442;SDS011;3254;47.372;8.512;2022-09-01T07:26:44;13.20;;;11.90;;
6442;SDS011;3254;47.372;8.512;2022-09-01T07:29:14;15.07;;;13.47;;
6442;SDS011;3254;47.372;8.512;2022-09-01T07:31:41;13.77;;;12.23;;
6442;SDS011;3254;47.372;8.512;2022-09-01T07:34:09;17.83;;;12.23;;
6442;SDS011;3254;47.372;8.512;2022-09-01T07:36:40;15.20;;;12.17;;
6442;SDS011;3254;47.372;8.512;2022-09-01T07:39:07;14.87;;;13.33;;
6442;SDS011;3254;47.372;8.512;2022-09-01T07:41:33;13.90;;;12.47;;
6442;SDS011;3254;47.372;8.512;2022-09-01T07:43:59;17.30;;;13.80;;
6442;SDS011;3254;47.372;8.512;2022-09-01T07:46:27;12.90;;;11.23;;
6442;SDS011;3254;47.372;8.512;2022-09-01T07:48:55;15.07;;;12.10;;
6442;SDS011;3254;47.372;8.512;2022-09-01T07:51:22;15.30;;;12.13;;
6442;SDS011;3254;47.372;8.512;2022-09-01T07:53:50;20.73;;;12.70;;
6442;SDS011;3254;47.372;8.512;2022-09-01T07:56:17;25.17;;;11.93;;
6442;SDS011;3254;47.372;8.512;2022-09-01T07:58:45;14.17;;;12.40;;
6442;SDS011;3254;47.372;8.512;2022-09-01T08:01:13;16.00;;;12.10;;
6442;SDS011;3254;47.372;8.512;2022-09-01T08:03:43;21.10;;;12.43;;
6442;SDS011;3254;47.372;8.512;2022-09-01T08:06:11;12.10;;;11.00;;
6442;SDS011;3254;47.372;8.512;2022-09-01T08:08:39;12.27;;;10.97;;
6442;SDS011;3254;47.372;8.512;2022-09-01T08:11:06;12.03;;;10.93;;
6442;SDS011;3254;47.372;8.512;2022-09-01T08:13:33;13.47;;;11.30;;
6442;SDS011;3254;47.372;8.512;2022-09-01T08:16:05;12.20;;;10.97;;
6442;SDS011;3254;47.372;8.512;2022-09-01T08:18:32;12.93;;;11.10;;
6442;SDS011;3254;47.372;8.512;2022-09-01T08:20:57;14.03;;;11.03;;
6442;SDS011;3254;47.372;8.512;2022-09-01T08:23:23;12.77;;;10.37;;
6442;SDS011;3254;47.372;8.512;2022-09-01T08:25:51;13.10;;;11.70;;
6442;SDS011;3254;47.372;8.512;2022-09-01T08:28:18;12.20;;;11.00;;
6442;SDS011;3254;47.372;8.512;2022-09-01T08:30:44;11.87;;;9.97;;
6442;SDS011;3254;47.372;8.512;2022-09-01T08:33:12;11.50;;;10.30;;
6442;SDS011;3254;47.372;8.512;2022-09-01T08:35:39;11.23;;;10.00;;
6442;SDS011;3254;47.372;8.512;2022-09-01T08:38:06;15.83;;;9.90;;
6442;SDS011;3254;47.372;8.512;2022-09-01T08:40:32;10.77;;;9.77;;
6442;SDS011;3254;47.372;8.512;2022-09-01T08:43:05;12.67;;;9.97;;
6442;SDS011;3254;47.372;8.512;2022-09-01T08:48:30;12.37;;;9.10;;
6442;SDS011;3254;47.372;8.512;2022-09-01T08:51:09;11.33;;;10.23;;
6442;SDS011;3254;47.372;8.512;2022-09-01T08:56:41;14.30;;;10.07;;
6442;SDS011;3254;47.372;8.512;2022-09-01T08:59:08;9.10;;;8.30;;
6442;SDS011;3254;47.372;8.512;2022-09-01T09:09:46;9.27;;;8.33;;
6442;SDS011;3254;47.372;8.512;2022-09-01T09:17:58;7.87;;;7.17;;
6442;SDS011;3254;47.372;8.512;2022-09-01T09:20:31;6.77;;;6.13;;
6442;SDS011;3254;47.372;8.512;2022-09-01T09:22:56;7.87;;;7.07;;
6442;SDS011;3254;47.372;8.512;2022-09-01T09:25:35;6.87;;;6.37;;
6442;SDS011;3254;47.372;8.512;2022-09-01T09:28:01;9.40;;;7.20;;
6442;SDS011;3254;47.372;8.512;2022-09-01T09:30:27;7.67;;;6.70;;
6442;SDS011;3254;47.372;8.512;2022-09-01T09:32:57;8.23;;;7.30;;
6442;SDS011;3254;47.372;8.512;2022-09-01T09:41:06;6.10;;;5.70;;
6442;SDS011;3254;47.372;8.512;2022-09-01T09:43:42;6.40;;;5.70;;
6442;SDS011;3254;47.372;8.512;2022-09-01T09:49:10;9.50;;;8.10;;
6442;SDS011;3254;47.372;8.512;2022-09-01T09:51:44;7.90;;;7.20;;
6442;SDS011;3254;47.372;8.512;2022-09-01T09:56:43;7.80;;;7.07;;
6442;SDS011;3254;47.372;8.512;2022-09-01T09:59:23;8.23;;;7.30;;
6442;SDS011;3254;47.372;8.512;2022-09-01T10:01:57;9.07;;;7.70;;
6442;SDS011;3254;47.372;8.512;2022-09-01T10:04:34;8.33;;;7.60;;
6442;SDS011;3254;47.372;8.512;2022-09-01T10:07:08;8.10;;;6.97;;
6442;SDS011;3254;47.372;8.512;2022-09-01T10:09:56;7.50;;;6.80;;
6442;SDS011;3254;47.372;8.512;2022-09-01T10:12:24;7.40;;;6.70;;
6442;SDS011;3254;47.372;8.512;2022-09-01T10:14:57;6.87;;;6.20;;
6442;SDS011;3254;47.372;8.512;2022-09-01T10:17:31;6.67;;;6.10;;
6442;SDS011;3254;47.372;8.512;2022-09-01T10:22:41;6.10;;;5.60;;
6442;SDS011;3254;47.372;8.512;2022-09-01T10:25:08;5.53;;;4.90;;
6442;SDS011;3254;47.372;8.512;2022-09-01T10:28:11;5.80;;;5.40;;
6442;SDS011;3254;47.372;8.512;2022-09-01T10:30:41;6.60;;;6.10;;
6442;SDS011;3254;47.372;8.512;2022-09-01T10:33:10;5.90;;;5.40;;
6442;SDS011;3254;47.372;8.512;2022-09-01T10:35:40;6.87;;;4.47;;
6442;SDS011;3254;47.372;8.512;2022-09-01T10:38:16;9.50;;;5.10;;
6442;SDS011;3254;47.372;8.512;2022-09-01T10:40:51;5.17;;;4.80;;
6442;SDS011;3254;47.372;8.512;2022-09-01T10:46:09;5.70;;;5.20;;
6442;SDS011;3254;47.372;8.512;2022-09-01T10:48:44;7.30;;;5.20;;
6442;SDS011;3254;47.372;8.512;2022-09-01T11:01:29;5.73;;;5.20;;
6442;SDS011;3254;47.372;8.512;2022-09-01T11:04:06;5.10;;;4.87;;
6442;SDS011;3254;47.372;8.512;2022-09-01T11:09:37;9.30;;;4.90;;
6442;SDS011;3254;47.372;8.512;2022-09-01T11:25:41;3.90;;;3.70;;
6442;SDS011;3254;47.372;8.512;2022-09-01T11:30:45;5.60;;;4.50;;
6442;SDS011;3254;47.372;8.512;2022-09-01T11:44:25;4.90;;;4.60;;
6442;SDS011;3254;47.372;8.512;2022-09-01T11:47:51;4.27;;;4.03;;
6442;SDS011;3254;47.372;8.512;2022-09-01T11:50:05;4.23;;;4.03;;
6442;SDS011;3254;47.372;8.512;2022-09-01T11:52:41;4.33;;;3.80;;
6442;SDS011;3254;47.372;8.512;2022-09-01T11:55:15;3.50;;;3.30;;
6442;SDS011;3254;47.372;8.512;2022-09-01T11:57:55;4.10;;;3.90;;
6442;SDS011;3254;47.372;8.512;2022-09-01T12:00:31;5.77;;;3.53;;
6442;SDS011;3254;47.372;8.512;2022-09-01T12:03:02;4.40;;;4.00;;
6442;SDS011;3254;47.372;8.512;2022-09-01T12:05:46;5.53;;;3.60;;
6442;SDS011;3254;47.372;8.512;2022-09-01T12:08:18;4.70;;;3.77;;
6442;SDS011;3254;47.372;8.512;2022-09-01T12:10:45;4.00;;;3.67;;
6442;SDS011;3254;47.372;8.512;2022-09-01T12:13:19;3.77;;;3.57;;
6442;SDS011;3254;47.372;8.512;2022-09-01T12:15:52;2.80;;;2.70;;
6442;SDS011;3254;47.372;8.512;2022-09-01T12:18:23;3.90;;;3.20;;
6442;SDS011;3254;47.372;8.512;2022-09-01T12:20:52;2.77;;;2.67;;
6442;SDS011;3254;47.372;8.512;2022-09-01T12:23:28;2.93;;;2.83;;
6442;SDS011;3254;47.372;8.512;2022-09-01T12:26:02;8.00;;;2.83;;
6442;SDS011;3254;47.372;8.512;2022-09-01T12:28:35;2.90;;;2.50;;
6442;SDS011;3254;47.372;8.512;2022-09-01T12:31:04;3.03;;;2.83;;
6442;SDS011;3254;47.372;8.512;2022-09-01T12:33:32;2.33;;;2.23;;
6442;SDS011;3254;47.372;8.512;2022-09-01T12:36:17;2.50;;;2.30;;
6442;SDS011;3254;47.372;8.512;2022-09-01T12:38:51;2.13;;;2.03;;
6442;SDS011;3254;47.372;8.512;2022-09-01T12:41:37;2.53;;;2.43;;
6442;SDS011;3254;47.372;8.512;2022-09-01T12:46:55;2.17;;;1.97;;
6442;SDS011;3254;47.372;8.512;2022-09-01T12:49:35;2.40;;;1.83;;
6442;SDS011;3254;47.372;8.512;2022-09-01T12:52:14;2.30;;;2.20;;
6442;SDS011;3254;47.372;8.512;2022-09-01T12:54:46;2.30;;;2.20;;
6442;SDS011;3254;47.372;8.512;2022-09-01T12:57:24;3.40;;;2.50;;
6442;SDS011;3254;47.372;8.512;2022-09-01T13:00:12;2.20;;;2.10;;
6442;SDS011;3254;47.372;8.512;2022-09-01T13:02:46;9.80;;;2.43;;
6442;SDS011;3254;47.372;8.512;2022-09-01T13:07:57;2.40;;;2.30;;
6442;SDS011;3254;47.372;8.512;2022-09-01T13:10:30;2.40;;;2.30;;
6442;SDS011;3254;47.372;8.512;2022-09-01T13:12:58;2.30;;;2.20;;
6442;SDS011;3254;47.372;8.512;2022-09-01T13:15:25;3.83;;;2.17;;
6442;SDS011;3254;47.372;8.512;2022-09-01T13:17:51;3.53;;;2.13;;
6442;SDS011;3254;47.372;8.512;2022-09-01T13:20:17;2.03;;;1.93;;
6442;SDS011;3254;47.372;8.512;2022-09-01T13:22:43;2.30;;;2.20;;
6442;SDS011;3254;47.372;8.512;2022-09-01T13:25:14;2.40;;;2.30;;
6442;SDS011;3254;47.372;8.512;2022-09-01T13:27:43;2.30;;;2.20;;
6442;SDS011;3254;47.372;8.512;2022-09-01T13:30:12;2.67;;;2.57;;
6442;SDS011;3254;47.372;8.512;2022-09-01T13:32:40;3.23;;;2.50;;
6442;SDS011;3254;47.372;8.512;2022-09-01T13:35:06;2.87;;;2.67;;
6442;SDS011;3254;47.372;8.512;2022-09-01T13:37:33;2.70;;;2.53;;
6442;SDS011;3254;47.372;8.512;2022-09-01T13:39:59;4.07;;;2.43;;
6442;SDS011;3254;47.372;8.512;2022-09-01T13:42:25;2.10;;;2.00;;
6442;SDS011;3254;47.372;8.512;2022-09-01T13:44:51;2.23;;;2.13;;
6442;SDS011;3254;47.372;8.512;2022-09-01T13:47:16;2.73;;;2.30;;
6442;SDS011;3254;47.372;8.512;2022-09-01T13:49:42;2.57;;;2.47;;
6442;SDS011;3254;47.372;8.512;2022-09-01T13:52:08;2.97;;;2.00;;
6442;SDS011;3254;47.372;8.512;2022-09-01T13:54:34;2.07;;;1.97;;
6442;SDS011;3254;47.372;8.512;2022-09-01T13:57:00;2.20;;;2.10;;
6442;SDS011;3254;47.372;8.512;2022-09-01T13:59:25;2.53;;;2.43;;
6442;SDS011;3254;47.372;8.512;2022-09-01T14:01:51;5.03;;;2.47;;
6442;SDS011;3254;47.372;8.512;2022-09-01T14:04:17;3.93;;;2.37;;
6442;SDS011;3254;47.372;8.512;2022-09-01T14:06:44;2.90;;;2.70;;
6442;SDS011;3254;47.372;8.512;2022-09-01T14:09:10;3.20;;;2.60;;
6442;SDS011;3254;47.372;8.512;2022-09-01T14:11:37;2.37;;;2.27;;
6442;SDS011;3254;47.372;8.512;2022-09-01T14:14:03;2.63;;;2.43;;
6442;SDS011;3254;47.372;8.512;2022-09-01T14:16:28;5.47;;;3.03;;
6442;SDS011;3254;47.372;8.512;2022-09-01T14:18:54;3.67;;;3.37;;
6442;SDS011;3254;47.372;8.512;2022-09-01T14:21:20;2.53;;;2.43;;
6442;SDS011;3254;47.372;8.512;2022-09-01T14:23:46;2.83;;;2.30;;
6442;SDS011;3254;47.372;8.512;2022-09-01T14:26:12;2.60;;;2.50;;
6442;SDS011;3254;47.372;8.512;2022-09-01T14:28:40;2.40;;;2.30;;
6442;SDS011;3254;47.372;8.512;2022-09-01T14:31:14;2.13;;;2.03;;
6442;SDS011;3254;47.372;8.512;2022-09-01T14:33:42;2.50;;;2.20;;
6442;SDS011;3254;47.372;8.512;2022-09-01T14:36:15;2.27;;;2.17;;
6442;SDS011;3254;47.372;8.512;2022-09-01T14:38:43;2.33;;;2.23;;
6442;SDS011;3254;47.372;8.512;2022-09-01T14:41:11;2.43;;;2.20;;
6442;SDS011;3254;47.372;8.512;2022-09-01T14:43:38;2.30;;;2.20;;
6442;SDS011;3254;47.372;8.512;2022-09-01T14:46:07;3.00;;;2.30;;
6442;SDS011;3254;47.372;8.512;2022-09-01T14:48:35;3.23;;;2.00;;
6442;SDS011;3254;47.372;8.512;2022-09-01T14:51:02;2.43;;;2.33;;
6442;SDS011;3254;47.372;8.512;2022-09-01T14:53:28;2.70;;;2.17;;
6442;SDS011;3254;47.372;8.512;2022-09-01T14:55:58;2.20;;;2.10;;
6442;SDS011;3254;47.372;8.512;2022-09-01T14:58:26;2.03;;;1.93;;
6442;SDS011;3254;47.372;8.512;2022-09-01T15:00:53;1.80;;;1.70;;
6442;SDS011;3254;47.372;8.512;2022-09-01T15:03:20;1.93;;;1.83;;
6442;SDS011;3254;47.372;8.512;2022-09-01T15:05:47;3.20;;;2.03;;
6442;SDS011;3254;47.372;8.512;2022-09-01T15:08:13;2.07;;;1.97;;
6442;SDS011;3254;47.372;8.512;2022-09-01T15:10:39;2.47;;;2.37;;
6442;SDS011;3254;47.372;8.512;2022-09-01T15:13:04;2.20;;;2.00;;
6442;SDS011;3254;47.372;8.512;2022-09-01T15:15:30;3.00;;;1.93;;
6442;SDS011;3254;47.372;8.512;2022-09-01T15:17:57;1.80;;;1.70;;
6442;SDS011;3254;47.372;8.512;2022-09-01T15:20:24;2.40;;;2.23;;
6442;SDS011;3254;47.372;8.512;2022-09-01T15:23:10;1.90;;;1.80;;
6442;SDS011;3254;47.372;8.512;2022-09-01T15:25:43;2.30;;;2.20;;
6442;SDS011;3254;47.372;8.512;2022-09-01T15:28:10;2.90;;;2.80;;
6442;SDS011;3254;47.372;8.512;2022-09-01T15:30:35;4.03;;;2.30;;
6442;SDS011;3254;47.372;8.512;2022-09-01T15:33:04;2.67;;;2.57;;
6442;SDS011;3254;47.372;8.512;2022-09-01T15:35:30;2.70;;;2.60;;
6442;SDS011;3254;47.372;8.512;2022-09-01T15:37:57;2.50;;;2.40;;
6442;SDS011;3254;47.372;8.512;2022-09-01T15:40:24;9.50;;;2.10;;
6442;SDS011;3254;47.372;8.512;2022-09-01T15:42:50;2.90;;;2.00;;
6442;SDS011;3254;47.372;8.512;2022-09-01T15:45:17;2.70;;;2.50;;
6442;SDS011;3254;47.372;8.512;2022-09-01T15:47:44;2.50;;;2.40;;
6442;SDS011;3254;47.372;8.512;2022-09-01T15:50:12;2.50;;;2.30;;
6442;SDS011;3254;47.372;8.512;2022-09-01T15:52:46;2.80;;;2.70;;
6442;SDS011;3254;47.372;8.512;2022-09-01T15:55:14;1.90;;;1.80;;
6442;SDS011;3254;47.372;8.512;2022-09-01T15:57:41;1.83;;;1.73;;
6442;SDS011;3254;47.372;8.512;2022-09-01T16:00:07;1.97;;;1.87;;
6442;SDS011;3254;47.372;8.512;2022-09-01T16:02:33;2.90;;;2.10;;
6442;SDS011;3254;47.372;8.512;2022-09-01T16:04:58;2.40;;;2.27;;
6442;SDS011;3254;47.372;8.512;2022-09-01T16:07:24;2.40;;;2.10;;
6442;SDS011;3254;47.372;8.512;2022-09-01T16:09:50;1.90;;;1.80;;
6442;SDS011;3254;47.372;8.512;2022-09-01T16:12:21;1.90;;;1.80;;
6442;SDS011;3254;47.372;8.512;2022-09-01T16:14:46;2.13;;;1.97;;
6442;SDS011;3254;47.372;8.512;2022-09-01T16:17:21;2.77;;;2.67;;
6442;SDS011;3254;47.372;8.512;2022-09-01T16:20:33;2.20;;;2.10;;
6442;SDS011;3254;47.372;8.512;2022-09-01T16:23:15;1.90;;;1.80;;
6442;SDS011;3254;47.372;8.512;2022-09-01T16:25:43;1.93;;;1.83;;
6442;SDS011;3254;47.372;8.512;2022-09-01T16:28:30;6.60;;;2.23;;
6442;SDS011;3254;47.372;8.512;2022-09-01T16:31:22;3.87;;;2.10;;
6442;SDS011;3254;47.372;8.512;2022-09-01T16:33:50;2.50;;;2.30;;
6442;SDS011;3254;47.372;8.512;2022-09-01T16:42:27;3.83;;;2.40;;
6442;SDS011;3254;47.372;8.512;2022-09-01T16:53:21;2.83;;;2.47;;
6442;SDS011;3254;47.372;8.512;2022-09-01T17:03:42;2.93;;;2.30;;